Conshohocken, PA

11:35 AM EDT on August 20, 2014 (GMT -0400)
Philadelphia Wings Airport | Change Station
CLOSE
Current Station
Airport
Location: Philadelphia Wings Airport,
Elevation: 302 ft
Nearby Weather Stations

Elev 302 ft 40.14 °N, 75.27 °W | Updated 20 minutes ago

Scattered Clouds
Scattered Clouds
79 °F
Feels Like 79 °F
N
5
Wind Variable Wind from ESE

Today
High -- | Low -- °F
--% Chance of Precip.
Yesterday
High -- | Low -- °F
Precip. -- in
6:17 AM 7:50 PM
Waning Crescent, 21% visible
Pressure 30.01 in
Visibility 10.0 miles
Clouds Scattered Clouds 4100 ft
Dew Point 64 °F
Humidity 61%
Rainfall 0.00 in
Snow Depth Not available.
UV 7 out of 12
Pollen 9.50 out of 12
Air Quality Not available.
Flu Activity Not available.
METAR KLOM 201515Z AUTO 12004KT 10SM SCT041 26/18 A3001 RMK AO1

More Conditions Fewer Conditions

Pressure 30.01 in
Visibility 10.0 miles
Clouds Scattered Clouds 4100 ft
Dew Point 64 °F
Humidity 61%
Rainfall 0.00 in
Snow Depth Not available.
UV 7 out of 12
Pollen 9.50 out of 12
Air Quality Not available.
Flu Activity Not available.
METAR KLOM 201515Z AUTO 12004KT 10SM SCT041 26/18 A3001 RMK AO1

More Conditions Fewer Conditions

10-Day Weather Forecast

Almanac

Astronomy

Aug. 20, 2014 Rise Set
Actual Time 6:17 AM EDT 7:50 PM EDT
Civil Twilight 5:48 AM EDT 8:19 PM EDT
Nautical Twilight 5:14 AM EDT 8:53 PM EDT
Astronomical Twilight 4:37 AM EDT 9:30 PM EDT
Moon 1:55 AM EDT 4:34 PM EDT
Length of Visible Light 14h 30m
Length of Day
13h 33m
Tomorrow will be 2m 24s shorter.
Waning Crescent, 21% of the Moon is Illuminated
Today
Waning Crescent
Aug 25
New
Sep 2
First Quarter
Sep 8
Full
Sep 15
Last Quarter

Today's Extremes

State Highs State Lows

Community

WunderPhotos

Upload Photos

1,745,667 photos uploaded!

WunderBlogs® & News

Nearby

Snow Depth

Station Depth Elevation
No new snow has been reported.

Earthquake Activity

City Distance Mag. Time & Date
No recent earthquake activity has been reported nearby.
Minimum magnitude displayed is 2.5.

Coastal Water Temperatures

Place Temperature
Cape May, NJ 79.0 °F
Reedy Point, DE 78.1 °F
Delaware City, DE 78.1 °F
Marcus Hook, PA 78.1 °F

Nearby Weather Stations